Cranbury, New Jersey
Current Conditions -  °F | °C
As of 3:53 AM on Saturday 29 Nov 2014 (Local Time) from KTTN Reporting Station
Clear Clear  
Wind Chill: -10°   Ceiling: Unl
Heat Index: -6°   Visibility: 10mi
Dew Point: -8°   Wind: 6mph
Humidity: 82%   Direction: 340°NNW
Pressure: 30.31"   Gusts: NA
Location:  40.32°N, 74.51°W
Report Text: KTTN 290853Z AUTO 34005KT 10SM CLR M06/M08 A3031 RMK AO2 SLP259 T10561083 50009
Loading
Personal Weather Stations






























Interactive Weather Map New forecast layout! Learn more

10-Day Weather Forecast

Advertisements
Track Severe Weather on mobile